sensor_id;sensor_type;location;lat;lon;timestamp;P1;durP1;ratioP1;P2;durP2;ratioP2
54883;SDS011;40776;52.880;6.016;2023-08-21T00:00:07;5.15;;;2.60;;
54883;SDS011;40776;52.880;6.016;2023-08-21T00:02:33;10.77;;;4.22;;
54883;SDS011;40776;52.880;6.016;2023-08-21T00:04:59;6.53;;;2.72;;
54883;SDS011;40776;52.880;6.016;2023-08-21T00:07:25;7.57;;;3.10;;
54883;SDS011;40776;52.880;6.016;2023-08-21T00:09:51;4.15;;;2.33;;
54883;SDS011;40776;52.880;6.016;2023-08-21T00:12:17;6.38;;;2.70;;
54883;SDS011;40776;52.880;6.016;2023-08-21T00:14:43;6.95;;;2.38;;
54883;SDS011;40776;52.880;6.016;2023-08-21T00:17:09;6.72;;;2.40;;
54883;SDS011;40776;52.880;6.016;2023-08-21T00:19:35;7.90;;;2.75;;
54883;SDS011;40776;52.880;6.016;2023-08-21T00:22:01;11.13;;;3.03;;
54883;SDS011;40776;52.880;6.016;2023-08-21T00:24:27;7.15;;;2.55;;
54883;SDS011;40776;52.880;6.016;2023-08-21T00:26:53;5.13;;;2.63;;
54883;SDS011;40776;52.880;6.016;2023-08-21T00:29:19;7.47;;;2.40;;
54883;SDS011;40776;52.880;6.016;2023-08-21T00:31:45;6.35;;;2.95;;
54883;SDS011;40776;52.880;6.016;2023-08-21T00:34:11;7.55;;;3.58;;
54883;SDS011;40776;52.880;6.016;2023-08-21T00:36:37;5.22;;;3.10;;
54883;SDS011;40776;52.880;6.016;2023-08-21T00:39:03;6.43;;;3.85;;
54883;SDS011;40776;52.880;6.016;2023-08-21T00:41:29;8.30;;;3.38;;
54883;SDS011;40776;52.880;6.016;2023-08-21T00:43:56;6.75;;;3.78;;
54883;SDS011;40776;52.880;6.016;2023-08-21T00:46:22;5.97;;;3.30;;
54883;SDS011;40776;52.880;6.016;2023-08-21T00:48:48;8.98;;;3.60;;
54883;SDS011;40776;52.880;6.016;2023-08-21T00:51:14;6.70;;;3.63;;
54883;SDS011;40776;52.880;6.016;2023-08-21T00:53:41;6.22;;;3.45;;
54883;SDS011;40776;52.880;6.016;2023-08-21T00:56:07;6.93;;;3.17;;
54883;SDS011;40776;52.880;6.016;2023-08-21T00:58:34;7.55;;;3.42;;
54883;SDS011;40776;52.880;6.016;2023-08-21T01:01:00;5.00;;;3.42;;
54883;SDS011;40776;52.880;6.016;2023-08-21T01:03:27;6.75;;;3.40;;
54883;SDS011;40776;52.880;6.016;2023-08-21T01:05:54;6.85;;;3.25;;
54883;SDS011;40776;52.880;6.016;2023-08-21T01:11:09;4.68;;;2.88;;
54883;SDS011;40776;52.880;6.016;2023-08-21T01:13:55;4.72;;;2.70;;
54883;SDS011;40776;52.880;6.016;2023-08-21T01:16:27;6.50;;;2.90;;
54883;SDS011;40776;52.880;6.016;2023-08-21T01:18:53;5.03;;;2.50;;
54883;SDS011;40776;52.880;6.016;2023-08-21T01:21:22;4.55;;;2.60;;
54883;SDS011;40776;52.880;6.016;2023-08-21T01:23:48;4.05;;;2.75;;
54883;SDS011;40776;52.880;6.016;2023-08-21T01:26:14;4.95;;;2.75;;
54883;SDS011;40776;52.880;6.016;2023-08-21T01:28:40;6.10;;;2.47;;
54883;SDS011;40776;52.880;6.016;2023-08-21T01:33:33;4.60;;;2.67;;
54883;SDS011;40776;52.880;6.016;2023-08-21T01:36:01;5.40;;;2.40;;
54883;SDS011;40776;52.880;6.016;2023-08-21T01:38:29;8.63;;;2.70;;
54883;SDS011;40776;52.880;6.016;2023-08-21T01:40:55;5.57;;;3.17;;
54883;SDS011;40776;52.880;6.016;2023-08-21T01:43:22;5.70;;;3.17;;
54883;SDS011;40776;52.880;6.016;2023-08-21T01:45:48;4.82;;;2.53;;
54883;SDS011;40776;52.880;6.016;2023-08-21T01:48:14;3.40;;;2.60;;
54883;SDS011;40776;52.880;6.016;2023-08-21T01:50:40;4.78;;;2.42;;
54883;SDS011;40776;52.880;6.016;2023-08-21T01:53:06;4.22;;;2.70;;
54883;SDS011;40776;52.880;6.016;2023-08-21T01:55:32;5.57;;;2.90;;
54883;SDS011;40776;52.880;6.016;2023-08-21T01:57:58;6.40;;;2.60;;
54883;SDS011;40776;52.880;6.016;2023-08-21T02:00:24;4.68;;;2.50;;
54883;SDS011;40776;52.880;6.016;2023-08-21T02:02:50;5.30;;;2.67;;
54883;SDS011;40776;52.880;6.016;2023-08-21T02:05:16;3.45;;;2.25;;
54883;SDS011;40776;52.880;6.016;2023-08-21T02:07:42;5.68;;;2.95;;
54883;SDS011;40776;52.880;6.016;2023-08-21T02:10:08;6.68;;;2.38;;
54883;SDS011;40776;52.880;6.016;2023-08-21T02:12:34;5.85;;;3.63;;
54883;SDS011;40776;52.880;6.016;2023-08-21T02:15:00;6.00;;;3.45;;
54883;SDS011;40776;52.880;6.016;2023-08-21T02:17:26;6.53;;;3.80;;
54883;SDS011;40776;52.880;6.016;2023-08-21T02:19:52;11.90;;;4.07;;
54883;SDS011;40776;52.880;6.016;2023-08-21T02:22:18;7.43;;;4.30;;
54883;SDS011;40776;52.880;6.016;2023-08-21T02:24:45;7.88;;;3.95;;
54883;SDS011;40776;52.880;6.016;2023-08-21T02:27:11;8.13;;;3.95;;
54883;SDS011;40776;52.880;6.016;2023-08-21T02:29:37;9.65;;;3.75;;
54883;SDS011;40776;52.880;6.016;2023-08-21T02:32:03;9.00;;;4.05;;
54883;SDS011;40776;52.880;6.016;2023-08-21T02:34:29;6.40;;;3.60;;
54883;SDS011;40776;52.880;6.016;2023-08-21T02:36:55;6.75;;;3.22;;
54883;SDS011;40776;52.880;6.016;2023-08-21T02:39:21;5.75;;;3.75;;
54883;SDS011;40776;52.880;6.016;2023-08-21T02:41:47;5.75;;;3.35;;
54883;SDS011;40776;52.880;6.016;2023-08-21T02:44:13;7.45;;;3.45;;
54883;SDS011;40776;52.880;6.016;2023-08-21T02:46:39;5.70;;;3.20;;
54883;SDS011;40776;52.880;6.016;2023-08-21T02:49:05;6.03;;;3.20;;
54883;SDS011;40776;52.880;6.016;2023-08-21T02:51:31;5.18;;;3.03;;
54883;SDS011;40776;52.880;6.016;2023-08-21T02:53:57;7.75;;;3.63;;
54883;SDS011;40776;52.880;6.016;2023-08-21T02:56:23;11.68;;;4.05;;
54883;SDS011;40776;52.880;6.016;2023-08-21T02:58:49;5.72;;;2.90;;
54883;SDS011;40776;52.880;6.016;2023-08-21T03:01:15;7.22;;;2.97;;
54883;SDS011;40776;52.880;6.016;2023-08-21T03:03:42;6.93;;;2.70;;
54883;SDS011;40776;52.880;6.016;2023-08-21T03:06:08;5.65;;;2.75;;
54883;SDS011;40776;52.880;6.016;2023-08-21T03:08:34;4.68;;;2.72;;
54883;SDS011;40776;52.880;6.016;2023-08-21T03:11:00;9.35;;;2.80;;
54883;SDS011;40776;52.880;6.016;2023-08-21T03:13:26;4.78;;;2.92;;
54883;SDS011;40776;52.880;6.016;2023-08-21T03:15:52;5.80;;;2.67;;
54883;SDS011;40776;52.880;6.016;2023-08-21T03:18:18;5.55;;;2.55;;
54883;SDS011;40776;52.880;6.016;2023-08-21T03:20:47;6.07;;;3.05;;
54883;SDS011;40776;52.880;6.016;2023-08-21T03:23:13;6.03;;;3.08;;
54883;SDS011;40776;52.880;6.016;2023-08-21T03:25:39;5.65;;;2.95;;
54883;SDS011;40776;52.880;6.016;2023-08-21T03:28:05;4.07;;;2.72;;
54883;SDS011;40776;52.880;6.016;2023-08-21T03:30:31;5.63;;;2.85;;
54883;SDS011;40776;52.880;6.016;2023-08-21T03:32:57;5.85;;;2.95;;
54883;SDS011;40776;52.880;6.016;2023-08-21T03:35:23;9.60;;;3.20;;
54883;SDS011;40776;52.880;6.016;2023-08-21T03:37:49;6.80;;;2.85;;
54883;SDS011;40776;52.880;6.016;2023-08-21T03:40:15;6.22;;;2.42;;
54883;SDS011;40776;52.880;6.016;2023-08-21T03:42:42;4.97;;;2.63;;
54883;SDS011;40776;52.880;6.016;2023-08-21T03:45:08;7.75;;;3.15;;
54883;SDS011;40776;52.880;6.016;2023-08-21T03:47:34;6.15;;;3.70;;
54883;SDS011;40776;52.880;6.016;2023-08-21T03:50:00;8.02;;;2.83;;
54883;SDS011;40776;52.880;6.016;2023-08-21T03:52:26;5.88;;;2.85;;
54883;SDS011;40776;52.880;6.016;2023-08-21T03:54:52;5.22;;;2.53;;
54883;SDS011;40776;52.880;6.016;2023-08-21T03:57:18;5.30;;;2.63;;
54883;SDS011;40776;52.880;6.016;2023-08-21T03:59:44;5.68;;;2.75;;
54883;SDS011;40776;52.880;6.016;2023-08-21T04:02:10;4.22;;;2.60;;
54883;SDS011;40776;52.880;6.016;2023-08-21T04:04:36;9.00;;;2.90;;
54883;SDS011;40776;52.880;6.016;2023-08-21T04:07:02;6.43;;;2.72;;
54883;SDS011;40776;52.880;6.016;2023-08-21T04:09:28;4.60;;;2.70;;
54883;SDS011;40776;52.880;6.016;2023-08-21T04:11:55;11.35;;;4.00;;
54883;SDS011;40776;52.880;6.016;2023-08-21T04:14:21;7.20;;;2.63;;
54883;SDS011;40776;52.880;6.016;2023-08-21T04:16:47;5.30;;;2.90;;
54883;SDS011;40776;52.880;6.016;2023-08-21T04:19:13;5.85;;;3.22;;
54883;SDS011;40776;52.880;6.016;2023-08-21T04:21:39;6.00;;;2.60;;
54883;SDS011;40776;52.880;6.016;2023-08-21T04:24:05;5.32;;;2.60;;
54883;SDS011;40776;52.880;6.016;2023-08-21T04:26:31;6.70;;;2.40;;
54883;SDS011;40776;52.880;6.016;2023-08-21T04:28:57;4.43;;;2.30;;
54883;SDS011;40776;52.880;6.016;2023-08-21T04:31:23;5.97;;;2.30;;
54883;SDS011;40776;52.880;6.016;2023-08-21T04:33:49;5.20;;;2.35;;
54883;SDS011;40776;52.880;6.016;2023-08-21T04:36:15;4.88;;;2.67;;
54883;SDS011;40776;52.880;6.016;2023-08-21T04:38:42;4.85;;;2.10;;
54883;SDS011;40776;52.880;6.016;2023-08-21T04:41:09;6.35;;;2.97;;
54883;SDS011;40776;52.880;6.016;2023-08-21T04:43:35;6.43;;;2.70;;
54883;SDS011;40776;52.880;6.016;2023-08-21T04:46:01;3.63;;;2.28;;
54883;SDS011;40776;52.880;6.016;2023-08-21T04:48:27;5.68;;;2.10;;
54883;SDS011;40776;52.880;6.016;2023-08-21T04:50:53;4.18;;;2.38;;
54883;SDS011;40776;52.880;6.016;2023-08-21T04:53:19;5.72;;;2.67;;
54883;SDS011;40776;52.880;6.016;2023-08-21T04:55:45;6.28;;;2.53;;
54883;SDS011;40776;52.880;6.016;2023-08-21T04:58:11;5.93;;;2.45;;
54883;SDS011;40776;52.880;6.016;2023-08-21T05:00:37;7.85;;;2.55;;
54883;SDS011;40776;52.880;6.016;2023-08-21T05:03:06;7.72;;;2.60;;
54883;SDS011;40776;52.880;6.016;2023-08-21T05:08:00;5.13;;;1.88;;
54883;SDS011;40776;52.880;6.016;2023-08-21T05:10:26;4.47;;;2.40;;
54883;SDS011;40776;52.880;6.016;2023-08-21T05:12:52;5.50;;;2.83;;
54883;SDS011;40776;52.880;6.016;2023-08-21T05:15:18;9.18;;;3.00;;
54883;SDS011;40776;52.880;6.016;2023-08-21T05:17:44;5.10;;;2.45;;
54883;SDS011;40776;52.880;6.016;2023-08-21T05:20:10;8.57;;;3.53;;
54883;SDS011;40776;52.880;6.016;2023-08-21T05:22:39;6.30;;;3.10;;
54883;SDS011;40776;52.880;6.016;2023-08-21T05:25:06;6.88;;;3.03;;
54883;SDS011;40776;52.880;6.016;2023-08-21T05:27:32;9.23;;;3.85;;
54883;SDS011;40776;52.880;6.016;2023-08-21T05:29:58;5.88;;;3.60;;
54883;SDS011;40776;52.880;6.016;2023-08-21T05:32:24;13.13;;;5.05;;
54883;SDS011;40776;52.880;6.016;2023-08-21T05:34:50;12.45;;;4.70;;
54883;SDS011;40776;52.880;6.016;2023-08-21T05:37:16;11.82;;;4.90;;
54883;SDS011;40776;52.880;6.016;2023-08-21T05:39:42;13.15;;;5.32;;
54883;SDS011;40776;52.880;6.016;2023-08-21T05:42:08;10.98;;;6.10;;
54883;SDS011;40776;52.880;6.016;2023-08-21T05:44:35;13.68;;;4.75;;
54883;SDS011;40776;52.880;6.016;2023-08-21T05:47:01;15.30;;;4.95;;
54883;SDS011;40776;52.880;6.016;2023-08-21T05:49:27;15.43;;;4.70;;
54883;SDS011;40776;52.880;6.016;2023-08-21T05:51:53;13.18;;;4.53;;
54883;SDS011;40776;52.880;6.016;2023-08-21T05:54:19;12.57;;;4.65;;
54883;SDS011;40776;52.880;6.016;2023-08-21T05:56:45;13.43;;;5.05;;
54883;SDS011;40776;52.880;6.016;2023-08-21T05:59:11;11.02;;;5.05;;
54883;SDS011;40776;52.880;6.016;2023-08-21T06:01:37;12.40;;;4.78;;
54883;SDS011;40776;52.880;6.016;2023-08-21T06:04:03;13.85;;;5.38;;
54883;SDS011;40776;52.880;6.016;2023-08-21T06:06:29;11.63;;;4.88;;
54883;SDS011;40776;52.880;6.016;2023-08-21T06:08:56;11.30;;;4.25;;
54883;SDS011;40776;52.880;6.016;2023-08-21T06:11:22;11.25;;;5.07;;
54883;SDS011;40776;52.880;6.016;2023-08-21T06:13:48;12.77;;;4.90;;
54883;SDS011;40776;52.880;6.016;2023-08-21T06:16:14;13.10;;;5.68;;
54883;SDS011;40776;52.880;6.016;2023-08-21T06:18:41;11.20;;;4.85;;
54883;SDS011;40776;52.880;6.016;2023-08-21T06:21:07;15.85;;;5.35;;
54883;SDS011;40776;52.880;6.016;2023-08-21T06:23:34;10.38;;;4.60;;
54883;SDS011;40776;52.880;6.016;2023-08-21T06:26:01;13.30;;;4.43;;
54883;SDS011;40776;52.880;6.016;2023-08-21T06:28:27;11.30;;;4.55;;
54883;SDS011;40776;52.880;6.016;2023-08-21T06:30:55;10.50;;;4.43;;
54883;SDS011;40776;52.880;6.016;2023-08-21T06:33:22;11.55;;;4.22;;
54883;SDS011;40776;52.880;6.016;2023-08-21T06:35:48;8.95;;;3.47;;
54883;SDS011;40776;52.880;6.016;2023-08-21T06:38:14;6.80;;;3.53;;
54883;SDS011;40776;52.880;6.016;2023-08-21T06:40:40;13.57;;;3.47;;
54883;SDS011;40776;52.880;6.016;2023-08-21T06:43:06;10.52;;;3.60;;
54883;SDS011;40776;52.880;6.016;2023-08-21T06:45:32;9.40;;;3.65;;
54883;SDS011;40776;52.880;6.016;2023-08-21T06:47:58;10.35;;;3.88;;
54883;SDS011;40776;52.880;6.016;2023-08-21T06:50:23;13.43;;;3.72;;
54883;SDS011;40776;52.880;6.016;2023-08-21T06:52:49;9.98;;;3.25;;
54883;SDS011;40776;52.880;6.016;2023-08-21T06:55:15;11.55;;;3.85;;
54883;SDS011;40776;52.880;6.016;2023-08-21T06:57:41;11.10;;;2.97;;
54883;SDS011;40776;52.880;6.016;2023-08-21T07:00:07;11.52;;;3.05;;
54883;SDS011;40776;52.880;6.016;2023-08-21T07:02:33;7.50;;;3.13;;
54883;SDS011;40776;52.880;6.016;2023-08-21T07:04:59;11.00;;;3.13;;
54883;SDS011;40776;52.880;6.016;2023-08-21T07:07:25;10.80;;;2.95;;
54883;SDS011;40776;52.880;6.016;2023-08-21T07:09:51;13.07;;;3.13;;
54883;SDS011;40776;52.880;6.016;2023-08-21T07:12:16;10.57;;;3.10;;
54883;SDS011;40776;52.880;6.016;2023-08-21T07:14:42;8.05;;;3.50;;
54883;SDS011;40776;52.880;6.016;2023-08-21T07:17:08;8.52;;;2.65;;
54883;SDS011;40776;52.880;6.016;2023-08-21T07:19:34;10.07;;;2.95;;
54883;SDS011;40776;52.880;6.016;2023-08-21T07:22:00;11.40;;;2.90;;
54883;SDS011;40776;52.880;6.016;2023-08-21T07:24:25;10.20;;;2.70;;
54883;SDS011;40776;52.880;6.016;2023-08-21T07:26:51;5.85;;;2.38;;
54883;SDS011;40776;52.880;6.016;2023-08-21T07:29:16;6.38;;;2.67;;
54883;SDS011;40776;52.880;6.016;2023-08-21T07:31:42;7.93;;;2.30;;
54883;SDS011;40776;52.880;6.016;2023-08-21T07:34:08;5.72;;;2.60;;
54883;SDS011;40776;52.880;6.016;2023-08-21T07:36:34;6.47;;;2.40;;
54883;SDS011;40776;52.880;6.016;2023-08-21T07:38:59;7.70;;;2.25;;
54883;SDS011;40776;52.880;6.016;2023-08-21T07:41:25;6.05;;;2.15;;
54883;SDS011;40776;52.880;6.016;2023-08-21T07:43:51;10.50;;;2.60;;
54883;SDS011;40776;52.880;6.016;2023-08-21T07:46:16;7.90;;;2.25;;
54883;SDS011;40776;52.880;6.016;2023-08-21T07:48:43;6.68;;;2.15;;
54883;SDS011;40776;52.880;6.016;2023-08-21T07:51:10;6.93;;;2.17;;
54883;SDS011;40776;52.880;6.016;2023-08-21T07:53:36;8.35;;;1.90;;
54883;SDS011;40776;52.880;6.016;2023-08-21T07:56:02;8.55;;;2.25;;
54883;SDS011;40776;52.880;6.016;2023-08-21T07:58:31;5.97;;;1.90;;
54883;SDS011;40776;52.880;6.016;2023-08-21T08:00:58;9.18;;;2.13;;
54883;SDS011;40776;52.880;6.016;2023-08-21T08:03:24;5.68;;;1.98;;
54883;SDS011;40776;52.880;6.016;2023-08-21T08:05:50;6.95;;;1.75;;
54883;SDS011;40776;52.880;6.016;2023-08-21T08:08:16;6.00;;;1.80;;
54883;SDS011;40776;52.880;6.016;2023-08-21T08:10:42;8.52;;;2.10;;
54883;SDS011;40776;52.880;6.016;2023-08-21T08:13:09;6.80;;;1.95;;
54883;SDS011;40776;52.880;6.016;2023-08-21T08:15:35;9.18;;;2.40;;
54883;SDS011;40776;52.880;6.016;2023-08-21T08:18:01;6.10;;;2.20;;
54883;SDS011;40776;52.880;6.016;2023-08-21T08:20:28;8.57;;;2.28;;
54883;SDS011;40776;52.880;6.016;2023-08-21T08:22:54;7.10;;;2.53;;
54883;SDS011;40776;52.880;6.016;2023-08-21T08:25:19;9.57;;;1.95;;
54883;SDS011;40776;52.880;6.016;2023-08-21T08:27:45;6.22;;;2.17;;
54883;SDS011;40776;52.880;6.016;2023-08-21T08:30:11;7.55;;;2.13;;
54883;SDS011;40776;52.880;6.016;2023-08-21T08:32:37;8.75;;;2.53;;
54883;SDS011;40776;52.880;6.016;2023-08-21T08:35:02;13.50;;;5.18;;
54883;SDS011;40776;52.880;6.016;2023-08-21T08:37:28;15.00;;;5.68;;
54883;SDS011;40776;52.880;6.016;2023-08-21T08:39:54;22.85;;;10.82;;
54883;SDS011;40776;52.880;6.016;2023-08-21T08:42:20;27.15;;;12.57;;
54883;SDS011;40776;52.880;6.016;2023-08-21T08:44:45;24.80;;;11.50;;
54883;SDS011;40776;52.880;6.016;2023-08-21T08:47:12;26.73;;;12.63;;
54883;SDS011;40776;52.880;6.016;2023-08-21T08:49:39;29.88;;;13.40;;
54883;SDS011;40776;52.880;6.016;2023-08-21T08:52:05;26.50;;;12.32;;
54883;SDS011;40776;52.880;6.016;2023-08-21T08:54:31;25.17;;;11.05;;
54883;SDS011;40776;52.880;6.016;2023-08-21T08:56:57;27.83;;;11.13;;
54883;SDS011;40776;52.880;6.016;2023-08-21T08:59:23;16.27;;;5.72;;
54883;SDS011;40776;52.880;6.016;2023-08-21T09:01:49;12.65;;;6.32;;
54883;SDS011;40776;52.880;6.016;2023-08-21T09:04:16;19.35;;;7.07;;
54883;SDS011;40776;52.880;6.016;2023-08-21T09:06:42;14.30;;;3.97;;
54883;SDS011;40776;52.880;6.016;2023-08-21T09:09:08;9.77;;;3.00;;
54883;SDS011;40776;52.880;6.016;2023-08-21T09:11:35;6.72;;;2.28;;
54883;SDS011;40776;52.880;6.016;2023-08-21T09:14:07;9.50;;;2.60;;
54883;SDS011;40776;52.880;6.016;2023-08-21T09:16:32;11.68;;;2.47;;
54883;SDS011;40776;52.880;6.016;2023-08-21T09:18:58;10.70;;;2.78;;
54883;SDS011;40776;52.880;6.016;2023-08-21T09:21:24;8.05;;;2.72;;
54883;SDS011;40776;52.880;6.016;2023-08-21T09:23:59;5.95;;;2.00;;
54883;SDS011;40776;52.880;6.016;2023-08-21T09:26:31;9.57;;;2.80;;
54883;SDS011;40776;52.880;6.016;2023-08-21T09:29:02;11.10;;;3.00;;
54883;SDS011;40776;52.880;6.016;2023-08-21T09:31:32;11.65;;;2.85;;
54883;SDS011;40776;52.880;6.016;2023-08-21T09:33:59;14.93;;;3.40;;
54883;SDS011;40776;52.880;6.016;2023-08-21T09:36:26;5.15;;;2.28;;
54883;SDS011;40776;52.880;6.016;2023-08-21T09:38:53;9.93;;;2.22;;
54883;SDS011;40776;52.880;6.016;2023-08-21T09:41:22;7.03;;;2.50;;
54883;SDS011;40776;52.880;6.016;2023-08-21T09:43:49;8.75;;;2.67;;
54883;SDS011;40776;52.880;6.016;2023-08-21T09:46:15;9.32;;;3.00;;
54883;SDS011;40776;52.880;6.016;2023-08-21T09:48:53;8.10;;;2.67;;
54883;SDS011;40776;52.880;6.016;2023-08-21T09:51:20;10.43;;;2.17;;
54883;SDS011;40776;52.880;6.016;2023-08-21T09:53:48;8.63;;;2.33;;
54883;SDS011;40776;52.880;6.016;2023-08-21T09:56:14;9.93;;;3.13;;
54883;SDS011;40776;52.880;6.016;2023-08-21T09:58:42;8.52;;;2.15;;
54883;SDS011;40776;52.880;6.016;2023-08-21T10:01:08;7.65;;;2.10;;
54883;SDS011;40776;52.880;6.016;2023-08-21T10:03:39;9.40;;;2.22;;
54883;SDS011;40776;52.880;6.016;2023-08-21T10:06:08;8.70;;;1.95;;
54883;SDS011;40776;52.880;6.016;2023-08-21T10:08:40;7.47;;;1.48;;
54883;SDS011;40776;52.880;6.016;2023-08-21T10:11:08;5.85;;;2.10;;
54883;SDS011;40776;52.880;6.016;2023-08-21T10:13:35;9.05;;;2.30;;
54883;SDS011;40776;52.880;6.016;2023-08-21T10:16:02;7.38;;;1.80;;
54883;SDS011;40776;52.880;6.016;2023-08-21T10:18:33;7.80;;;2.05;;
54883;SDS011;40776;52.880;6.016;2023-08-21T10:21:14;6.00;;;1.75;;
54883;SDS011;40776;52.880;6.016;2023-08-21T10:23:39;6.57;;;2.00;;
54883;SDS011;40776;52.880;6.016;2023-08-21T10:26:07;10.43;;;2.85;;
54883;SDS011;40776;52.880;6.016;2023-08-21T10:33:57;9.77;;;2.35;;
54883;SDS011;40776;52.880;6.016;2023-08-21T10:36:37;8.00;;;1.88;;
54883;SDS011;40776;52.880;6.016;2023-08-21T10:39:12;15.98;;;2.33;;
54883;SDS011;40776;52.880;6.016;2023-08-21T10:41:38;7.85;;;2.33;;
54883;SDS011;40776;52.880;6.016;2023-08-21T10:44:05;5.03;;;1.50;;
54883;SDS011;40776;52.880;6.016;2023-08-21T10:46:50;5.20;;;1.48;;
54883;SDS011;40776;52.880;6.016;2023-08-21T10:49:17;8.48;;;1.90;;
54883;SDS011;40776;52.880;6.016;2023-08-21T10:51:43;10.82;;;1.70;;
54883;SDS011;40776;52.880;6.016;2023-08-21T10:54:15;4.95;;;1.42;;
54883;SDS011;40776;52.880;6.016;2023-08-21T10:56:41;5.65;;;1.70;;
54883;SDS011;40776;52.880;6.016;2023-08-21T10:59:07;6.32;;;1.40;;
54883;SDS011;40776;52.880;6.016;2023-08-21T11:01:42;6.78;;;2.00;;
54883;SDS011;40776;52.880;6.016;2023-08-21T11:04:10;6.80;;;1.50;;
54883;SDS011;40776;52.880;6.016;2023-08-21T11:06:37;5.40;;;1.30;;
54883;SDS011;40776;52.880;6.016;2023-08-21T11:09:04;7.70;;;1.30;;
54883;SDS011;40776;52.880;6.016;2023-08-21T11:11:31;7.13;;;1.73;;
54883;SDS011;40776;52.880;6.016;2023-08-21T11:13:56;4.43;;;1.30;;
54883;SDS011;40776;52.880;6.016;2023-08-21T11:16:24;4.88;;;1.88;;
54883;SDS011;40776;52.880;6.016;2023-08-21T11:18:50;7.53;;;1.40;;
54883;SDS011;40776;52.880;6.016;2023-08-21T11:21:15;7.28;;;1.40;;
54883;SDS011;40776;52.880;6.016;2023-08-21T11:23:41;10.45;;;5.47;;
54883;SDS011;40776;52.880;6.016;2023-08-21T11:26:11;4.30;;;2.25;;
54883;SDS011;40776;52.880;6.016;2023-08-21T11:28:41;3.83;;;1.40;;
54883;SDS011;40776;52.880;6.016;2023-08-21T11:31:07;6.88;;;1.20;;
54883;SDS011;40776;52.880;6.016;2023-08-21T11:33:37;4.70;;;1.02;;
54883;SDS011;40776;52.880;6.016;2023-08-21T11:36:04;5.03;;;0.98;;
54883;SDS011;40776;52.880;6.016;2023-08-21T11:38:30;5.05;;;0.95;;
54883;SDS011;40776;52.880;6.016;2023-08-21T11:40:57;6.90;;;1.00;;
54883;SDS011;40776;52.880;6.016;2023-08-21T11:43:41;3.53;;;0.90;;
54883;SDS011;40776;52.880;6.016;2023-08-21T11:46:08;4.55;;;1.17;;
54883;SDS011;40776;52.880;6.016;2023-08-21T11:48:39;8.80;;;1.05;;
54883;SDS011;40776;52.880;6.016;2023-08-21T11:51:09;5.13;;;1.10;;
54883;SDS011;40776;52.880;6.016;2023-08-21T11:53:36;7.00;;;1.10;;
54883;SDS011;40776;52.880;6.016;2023-08-21T11:56:08;2.95;;;1.05;;
54883;SDS011;40776;52.880;6.016;2023-08-21T11:58:42;5.07;;;1.02;;
54883;SDS011;40776;52.880;6.016;2023-08-21T12:01:18;6.05;;;1.25;;
54883;SDS011;40776;52.880;6.016;2023-08-21T12:03:44;6.88;;;1.00;;
54883;SDS011;40776;52.880;6.016;2023-08-21T12:06:11;7.75;;;1.45;;
54883;SDS011;40776;52.880;6.016;2023-08-21T12:08:39;3.60;;;1.00;;
54883;SDS011;40776;52.880;6.016;2023-08-21T12:11:05;5.25;;;0.98;;
54883;SDS011;40776;52.880;6.016;2023-08-21T12:13:32;4.80;;;0.90;;
54883;SDS011;40776;52.880;6.016;2023-08-21T12:15:58;5.70;;;0.93;;
54883;SDS011;40776;52.880;6.016;2023-08-21T12:18:24;4.72;;;1.15;;
54883;SDS011;40776;52.880;6.016;2023-08-21T12:28:30;4.07;;;1.05;;
54883;SDS011;40776;52.880;6.016;2023-08-21T12:30:55;3.70;;;0.70;;
54883;SDS011;40776;52.880;6.016;2023-08-21T12:33:21;4.30;;;0.90;;
54883;SDS011;40776;52.880;6.016;2023-08-21T12:35:47;1.80;;;0.38;;
54883;SDS011;40776;52.880;6.016;2023-08-21T12:38:13;3.15;;;0.80;;
54883;SDS011;40776;52.880;6.016;2023-08-21T12:40:39;5.85;;;1.00;;
54883;SDS011;40776;52.880;6.016;2023-08-21T12:43:05;15.98;;;11.57;;
54883;SDS011;40776;52.880;6.016;2023-08-21T12:45:30;5.07;;;1.00;;
54883;SDS011;40776;52.880;6.016;2023-08-21T12:47:56;3.50;;;0.88;;
54883;SDS011;40776;52.880;6.016;2023-08-21T12:50:22;4.20;;;1.00;;
54883;SDS011;40776;52.880;6.016;2023-08-21T12:52:47;5.95;;;0.85;;
54883;SDS011;40776;52.880;6.016;2023-08-21T12:55:13;4.18;;;0.75;;
54883;SDS011;40776;52.880;6.016;2023-08-21T12:57:39;2.40;;;0.90;;
54883;SDS011;40776;52.880;6.016;2023-08-21T13:00:05;3.28;;;0.93;;
54883;SDS011;40776;52.880;6.016;2023-08-21T13:02:31;4.40;;;0.90;;
54883;SDS011;40776;52.880;6.016;2023-08-21T13:04:56;2.22;;;0.70;;
54883;SDS011;40776;52.880;6.016;2023-08-21T13:07:22;2.95;;;0.60;;
54883;SDS011;40776;52.880;6.016;2023-08-21T13:09:48;3.17;;;0.90;;
54883;SDS011;40776;52.880;6.016;2023-08-21T13:12:13;2.63;;;1.05;;
54883;SDS011;40776;52.880;6.016;2023-08-21T13:14:39;3.05;;;0.70;;
54883;SDS011;40776;52.880;6.016;2023-08-21T13:17:06;2.42;;;0.60;;
54883;SDS011;40776;52.880;6.016;2023-08-21T13:19:33;5.97;;;0.98;;
54883;SDS011;40776;52.880;6.016;2023-08-21T13:21:58;4.22;;;1.42;;
54883;SDS011;40776;52.880;6.016;2023-08-21T13:24:24;7.38;;;0.95;;
54883;SDS011;40776;52.880;6.016;2023-08-21T13:26:50;2.97;;;0.90;;
54883;SDS011;40776;52.880;6.016;2023-08-21T13:29:16;3.95;;;1.08;;
54883;SDS011;40776;52.880;6.016;2023-08-21T13:31:42;2.45;;;0.70;;
54883;SDS011;40776;52.880;6.016;2023-08-21T13:34:08;4.45;;;0.93;;
54883;SDS011;40776;52.880;6.016;2023-08-21T13:36:34;3.45;;;0.98;;
54883;SDS011;40776;52.880;6.016;2023-08-21T13:38:59;6.20;;;0.80;;
54883;SDS011;40776;52.880;6.016;2023-08-21T13:41:25;3.45;;;0.80;;
54883;SDS011;40776;52.880;6.016;2023-08-21T13:43:51;2.45;;;0.80;;
54883;SDS011;40776;52.880;6.016;2023-08-21T13:46:17;4.53;;;0.93;;
54883;SDS011;40776;52.880;6.016;2023-08-21T13:48:45;3.10;;;0.68;;
54883;SDS011;40776;52.880;6.016;2023-08-21T13:51:11;2.17;;;0.70;;
54883;SDS011;40776;52.880;6.016;2023-08-21T13:53:36;3.42;;;0.73;;
54883;SDS011;40776;52.880;6.016;2023-08-21T13:56:02;5.40;;;0.93;;
54883;SDS011;40776;52.880;6.016;2023-08-21T13:58:28;3.45;;;0.98;;
54883;SDS011;40776;52.880;6.016;2023-08-21T14:00:54;4.85;;;0.98;;
54883;SDS011;40776;52.880;6.016;2023-08-21T14:03:22;3.03;;;0.85;;
54883;SDS011;40776;52.880;6.016;2023-08-21T14:05:48;4.13;;;0.77;;
54883;SDS011;40776;52.880;6.016;2023-08-21T14:08:13;6.40;;;1.13;;
54883;SDS011;40776;52.880;6.016;2023-08-21T14:10:39;2.55;;;1.05;;
54883;SDS011;40776;52.880;6.016;2023-08-21T14:13:05;3.08;;;0.90;;
54883;SDS011;40776;52.880;6.016;2023-08-21T14:15:33;2.35;;;0.60;;
54883;SDS011;40776;52.880;6.016;2023-08-21T14:17:59;3.20;;;0.95;;
54883;SDS011;40776;52.880;6.016;2023-08-21T14:20:25;5.53;;;1.10;;
54883;SDS011;40776;52.880;6.016;2023-08-21T14:22:51;6.78;;;1.23;;
54883;SDS011;40776;52.880;6.016;2023-08-21T14:25:17;6.93;;;1.83;;
54883;SDS011;40776;52.880;6.016;2023-08-21T14:27:42;4.55;;;1.25;;
54883;SDS011;40776;52.880;6.016;2023-08-21T14:30:08;5.35;;;1.30;;
54883;SDS011;40776;52.880;6.016;2023-08-21T14:32:38;6.07;;;1.27;;
54883;SDS011;40776;52.880;6.016;2023-08-21T14:35:04;4.60;;;1.40;;
54883;SDS011;40776;52.880;6.016;2023-08-21T14:37:33;7.60;;;1.17;;
54883;SDS011;40776;52.880;6.016;2023-08-21T14:40:01;6.60;;;1.48;;
54883;SDS011;40776;52.880;6.016;2023-08-21T14:42:35;8.52;;;1.85;;
54883;SDS011;40776;52.880;6.016;2023-08-21T14:45:01;7.95;;;1.70;;
54883;SDS011;40776;52.880;6.016;2023-08-21T14:47:28;8.07;;;1.70;;
54883;SDS011;40776;52.880;6.016;2023-08-21T14:49:54;5.30;;;1.83;;
54883;SDS011;40776;52.880;6.016;2023-08-21T14:52:20;8.02;;;2.50;;
54883;SDS011;40776;52.880;6.016;2023-08-21T14:54:48;11.32;;;3.67;;
54883;SDS011;40776;52.880;6.016;2023-08-21T14:57:15;12.85;;;3.40;;
54883;SDS011;40776;52.880;6.016;2023-08-21T14:59:41;7.82;;;3.05;;
54883;SDS011;40776;52.880;6.016;2023-08-21T15:02:07;11.43;;;3.90;;